Time;durP1;ratioP1;P1;durP2;ratioP2;P2;SDS_P1;SDS_P2;PMS_P1;PMS_P2;Temp;Humidity;BMP_temperature;BMP_pressure;BME280_temperature;BME280_humidity;BME280_pressure;Samples;Min_cycle;Max_cycle;Signal;HPM_P1;HPM_P2
2022/03/03 00:01:48;;;;;;;;;;;;;;;-1.11;52.06;100323.69;6187210;23;19916;-86
2022/03/03 00:04:13;;;;;;;;;;;;;;;-1.14;52.00;100316.22;6214262;23;19919;-87
2022/03/03 00:06:38;;;;;;;;;;;;;;;-1.13;52.38;100315.06;6187539;23;20361;-86
2022/03/03 00:09:04;;;;;;;;;;;;;;;-1.18;52.54;100320.78;6162246;23;20010;-86
2022/03/03 00:11:30;;;;;;;;;;;;;;;-1.34;52.66;100319.19;6162441;23;19939;-86
2022/03/03 00:13:58;;;;;;;;;;;;;;;-1.43;53.88;100312.00;6211807;23;19911;-86
2022/03/03 00:16:24;;;;;;;;;;;;;;;-1.52;55.70;100313.28;6137862;23;20393;-86
2022/03/03 00:18:49;;;;;;;;;;;;;;;-1.74;57.28;100309.25;6214036;23;19916;-86
2022/03/03 00:21:14;;;;;;;;;;;;;;;-1.85;57.83;100313.56;6187143;23;19915;-86
2022/03/03 00:23:40;;;;;;;;;;;;;;;-1.94;58.16;100324.59;6187191;23;19965;-87
2022/03/03 00:26:05;;;;;;;;;;;;;;;-1.94;58.47;100302.84;6162441;23;19916;-86
2022/03/03 00:28:31;;;;;;;;;;;;;;;-2.00;58.40;100312.41;6187625;23;20021;-86
2022/03/03 00:30:56;;;;;;;;;;;;;;;-2.04;58.68;100311.50;6186973;23;19912;-86
2022/03/03 00:33:22;;;;;;;;;;;;;;;-2.15;58.62;100313.16;6214064;23;19970;-86
2022/03/03 00:35:47;;;;;;;;;;;;;;;-2.18;58.97;100302.94;6213851;23;19955;-87
2022/03/03 00:38:13;;;;;;;;;;;;;;;-2.24;59.38;100304.34;6162302;23;19920;-86
2022/03/03 00:40:38;;;;;;;;;;;;;;;-2.28;59.83;100308.88;6162531;23;19916;-86
2022/03/03 00:43:04;;;;;;;;;;;;;;;-2.32;59.77;100312.63;6162388;23;19920;-86
2022/03/03 00:45:30;;;;;;;;;;;;;;;-2.37;59.57;100310.94;6187387;23;20242;-86
2022/03/03 00:47:55;;;;;;;;;;;;;;;-2.32;59.50;100307.19;6186846;23;19916;-86
2022/03/03 00:50:21;;;;;;;;;;;;;;;-2.37;59.55;100300.88;6213659;23;19920;-85
2022/03/03 00:52:46;;;;;;;;;;;;;;;-2.35;59.64;100289.66;6213245;23;19916;-85
2022/03/03 00:55:12;;;;;;;;;;;;;;;-2.38;59.10;100295.78;6162425;23;19951;-85
2022/03/03 00:57:37;;;;;;;;;;;;;;;-2.45;59.07;100304.50;6213423;23;20382;-85
2022/03/03 01:00:04;;;;;;;;;;;;;;;-2.52;58.33;100292.66;6213355;23;19912;-85
2022/03/03 01:02:29;;;;;;;;;;;;;;;-2.50;58.51;100301.22;6187019;23;19991;-85
2022/03/03 01:04:54;;;;;;;;;;;;;;;-2.45;58.09;100293.66;6187112;23;19951;-86
2022/03/03 01:07:20;;;;;;;;;;;;;;;-2.40;57.60;100303.50;6161969;23;20338;-86
2022/03/03 01:09:45;;;;;;;;;;;;;;;-2.40;56.75;100298.84;6213481;23;19912;-86
2022/03/03 01:12:11;;;;;;;;;;;;;;;-2.37;56.58;100300.06;6186342;23;19994;-86
2022/03/03 01:14:36;;;;;;;;;;;;;;;-2.40;56.60;100289.91;6162345;23;20286;-86
2022/03/03 01:17:02;;;;;;;;;;;;;;;-2.39;56.61;100294.22;6186228;23;19987;-86
2022/03/03 01:19:28;;;;;;;;;;;;;;;-2.40;56.33;100290.69;6162724;23;19947;-86
2022/03/03 01:21:53;;;;;;;;;;;;;;;-2.37;57.08;100300.88;6211420;23;20086;-85
2022/03/03 01:24:18;;;;;;;;;;;;;;;-2.38;56.81;100296.56;6162205;23;19923;-87
2022/03/03 01:26:44;;;;;;;;;;;;;;;-2.39;56.86;100269.75;6160284;23;19974;-86
2022/03/03 01:29:10;;;;;;;;;;;;;;;-2.40;56.63;100285.25;6186690;23;20338;-86
2022/03/03 01:31:35;;;;;;;;;;;;;;;-2.38;56.79;100282.19;6186744;23;19978;-86
2022/03/03 01:34:01;;;;;;;;;;;;;;;-2.38;56.68;100293.06;6160410;23;20327;-86
2022/03/03 01:36:26;;;;;;;;;;;;;;;-2.40;56.25;100284.47;6186900;23;19912;-86
2022/03/03 01:38:52;;;;;;;;;;;;;;;-2.39;56.27;100283.34;6186751;23;19916;-86
2022/03/03 01:41:17;;;;;;;;;;;;;;;-2.40;56.02;100287.19;6186849;23;19915;-86
2022/03/03 01:43:43;;;;;;;;;;;;;;;-2.41;55.87;100275.53;6186890;23;19920;-85
2022/03/03 01:46:08;;;;;;;;;;;;;;;-2.48;55.73;100272.63;6186917;23;20465;-84
2022/03/03 01:48:33;;;;;;;;;;;;;;;-2.48;55.37;100277.25;6213304;23;19966;-84
2022/03/03 01:50:59;;;;;;;;;;;;;;;-2.45;55.84;100271.91;6186532;23;19954;-84
2022/03/03 01:53:25;;;;;;;;;;;;;;;-2.37;55.82;100256.59;6161958;23;20354;-85
2022/03/03 01:55:50;;;;;;;;;;;;;;;-2.40;55.49;100257.31;6186477;23;20002;-84
2022/03/03 01:58:16;;;;;;;;;;;;;;;-2.37;55.90;100259.31;6186581;23;19982;-84
2022/03/03 02:03:23;;;;;;;;;;;;;;;-2.49;55.76;100240.34;6228104;22;20000;-82
2022/03/03 02:05:49;;;;;;;;;;;;;;;-2.49;56.03;100237.63;6216885;23;19915;-83
2022/03/03 02:08:14;;;;;;;;;;;;;;;-2.48;56.34;100239.22;6216794;23;19973;-82
2022/03/03 02:10:40;;;;;;;;;;;;;;;-2.48;56.23;100239.22;6243891;23;19919;-82
2022/03/03 02:13:06;;;;;;;;;;;;;;;-2.54;56.24;100235.16;6243444;23;19917;-82
2022/03/03 02:15:31;;;;;;;;;;;;;;;-2.61;56.27;100237.66;6243645;23;19984;-83
2022/03/03 02:17:57;;;;;;;;;;;;;;;-2.63;56.60;100237.25;6243851;23;20363;-83
2022/03/03 02:20:26;;;;;;;;;;;;;;;-2.68;56.29;100229.31;6244049;23;19918;-80
2022/03/03 02:22:52;;;;;;;;;;;;;;;-2.64;56.74;100241.88;6243704;23;20300;-81
2022/03/03 02:25:17;;;;;;;;;;;;;;;-2.63;56.54;100232.59;6244220;23;19916;-79
2022/03/03 02:27:43;;;;;;;;;;;;;;;-2.63;57.13;100231.81;6216937;23;19922;-79
2022/03/03 02:30:09;;;;;;;;;;;;;;;-2.69;57.09;100239.41;6243892;23;19990;-81
2022/03/03 02:32:35;;;;;;;;;;;;;;;-2.70;57.29;100232.38;6217415;23;19919;-81
2022/03/03 02:35:00;;;;;;;;;;;;;;;-2.70;57.03;100243.22;6245706;23;19916;-81
2022/03/03 02:37:30;;;;;;;;;;;;;;;-2.65;57.69;100232.13;6245847;23;19915;-81
2022/03/03 02:39:56;;;;;;;;;;;;;;;-2.70;58.16;100226.16;6245651;23;19991;-80
2022/03/03 02:42:21;;;;;;;;;;;;;;;-2.71;57.06;100221.88;6245696;23;19943;-79
2022/03/03 02:44:46;;;;;;;;;;;;;;;-2.69;57.36;100225.03;6245269;23;19924;-80
2022/03/03 02:47:12;;;;;;;;;;;;;;;-2.63;57.21;100226.38;6245698;23;20458;-79
2022/03/03 02:49:37;;;;;;;;;;;;;;;-2.59;56.90;100221.84;6245561;23;20464;-80
2022/03/03 02:52:03;;;;;;;;;;;;;;;-2.63;56.76;100220.94;6245621;23;19915;-79
2022/03/03 02:54:28;;;;;;;;;;;;;;;-2.60;56.74;100215.63;6218655;23;19912;-80
2022/03/03 02:59:38;;;;;;;;;;;;;;;-2.54;56.23;100224.28;6245406;23;19923;-79
2022/03/03 03:02:03;;;;;;;;;;;;;;;-2.55;56.15;100217.31;6244863;23;20395;-79
2022/03/03 03:04:29;;;;;;;;;;;;;;;-2.60;56.47;100212.09;6218176;23;19923;-79
2022/03/03 03:06:54;;;;;;;;;;;;;;;-2.62;56.56;100217.06;6244789;23;20321;-79
2022/03/03 03:09:20;;;;;;;;;;;;;;;-2.56;56.65;100218.44;6218094;23;19962;-80
2022/03/03 03:11:45;;;;;;;;;;;;;;;-2.51;56.53;100212.75;6245554;23;19934;-80
2022/03/03 03:14:10;;;;;;;;;;;;;;;-2.53;56.58;100215.81;6244369;23;20030;-80
2022/03/03 03:16:36;;;;;;;;;;;;;;;-2.53;56.75;100210.38;6245775;23;19927;-80
2022/03/03 03:19:01;;;;;;;;;;;;;;;-2.49;56.62;100208.56;6245128;23;20388;-83
2022/03/03 03:21:26;;;;;;;;;;;;;;;-2.42;56.58;100211.47;6245528;23;19924;-83
2022/03/03 03:23:52;;;;;;;;;;;;;;;-2.46;56.48;100217.91;6244942;23;19939;-83
2022/03/03 03:26:17;;;;;;;;;;;;;;;-2.60;57.24;100214.81;6245459;23;19915;-83
2022/03/03 03:28:43;;;;;;;;;;;;;;;-2.68;57.24;100208.41;6218403;23;19911;-83
2022/03/03 03:31:08;;;;;;;;;;;;;;;-2.68;57.53;100223.91;6245311;23;19990;-83
2022/03/03 03:33:34;;;;;;;;;;;;;;;-2.77;57.80;100223.22;6244893;23;19915;-83
2022/03/03 03:35:59;;;;;;;;;;;;;;;-2.76;58.05;100222.91;6245274;23;19911;-83
2022/03/03 03:38:24;;;;;;;;;;;;;;;-2.73;58.08;100224.91;6245033;23;19951;-83
2022/03/03 03:40:50;;;;;;;;;;;;;;;-2.69;58.04;100223.09;6245103;23;19912;-83
2022/03/03 03:43:15;;;;;;;;;;;;;;;-2.70;58.23;100215.28;6244957;23;19998;-83
2022/03/03 03:45:41;;;;;;;;;;;;;;;-2.74;58.25;100220.63;6245312;23;19957;-83
2022/03/03 03:48:06;;;;;;;;;;;;;;;-2.78;58.53;100222.44;6244998;23;19920;-83
2022/03/03 03:50:31;;;;;;;;;;;;;;;-2.86;58.65;100220.66;6244722;23;19970;-83
2022/03/03 03:52:57;;;;;;;;;;;;;;;-2.91;58.71;100216.25;6245096;23;20345;-83
2022/03/03 03:55:23;;;;;;;;;;;;;;;-2.98;59.33;100216.03;6218614;23;19946;-83
2022/03/03 03:57:48;;;;;;;;;;;;;;;-2.98;59.70;100217.97;6245026;23;19916;-82
2022/03/03 04:00:14;;;;;;;;;;;;;;;-3.04;60.14;100228.28;6217793;23;19969;-83
2022/03/03 04:02:42;;;;;;;;;;;;;;;-3.03;60.22;100218.97;6244674;23;20308;-82
2022/03/03 04:05:08;;;;;;;;;;;;;;;-3.03;60.20;100218.22;6244237;23;19926;-83
2022/03/03 04:07:34;;;;;;;;;;;;;;;-3.07;60.50;100228.94;6218201;23;19915;-83
2022/03/03 04:09:59;;;;;;;;;;;;;;;-3.06;60.52;100224.31;6244622;23;19916;-83
2022/03/03 04:12:25;;;;;;;;;;;;;;;-3.09;60.56;100225.78;6244710;23;19999;-83
2022/03/03 04:14:50;;;;;;;;;;;;;;;-3.09;60.70;100214.13;6244663;23;19916;-83
2022/03/03 04:17:16;;;;;;;;;;;;;;;-3.09;60.68;100214.94;6244191;23;19957;-83
2022/03/03 04:19:41;;;;;;;;;;;;;;;-3.10;60.92;100213.34;6244566;23;19994;-83
2022/03/03 04:22:07;;;;;;;;;;;;;;;-3.11;61.08;100217.19;6244726;23;19923;-83
2022/03/03 04:24:32;;;;;;;;;;;;;;;-3.13;61.46;100207.81;6244360;23;19947;-83
2022/03/03 04:26:57;;;;;;;;;;;;;;;-3.17;61.28;100207.69;6217573;23;20273;-83
2022/03/03 04:29:23;;;;;;;;;;;;;;;-3.15;61.57;100200.00;6244547;23;19916;-82
2022/03/03 04:31:51;;;;;;;;;;;;;;;-3.14;61.81;100212.44;6244684;23;20269;-82
2022/03/03 04:34:16;;;;;;;;;;;;;;;-3.13;61.85;100214.03;6217322;23;20281;-82
2022/03/03 04:36:41;;;;;;;;;;;;;;;-3.14;61.71;100212.44;6244542;23;19911;-82
2022/03/03 04:39:07;;;;;;;;;;;;;;;-3.14;62.00;100211.66;6244222;23;19930;-82
2022/03/03 04:41:32;;;;;;;;;;;;;;;-3.12;61.71;100212.91;6244367;23;20332;-82
2022/03/03 04:43:58;;;;;;;;;;;;;;;-3.11;61.79;100211.75;6243502;23;19930;-83
2022/03/03 04:46:23;;;;;;;;;;;;;;;-3.16;62.04;100203.88;6244530;23;20004;-82
2022/03/03 04:48:48;;;;;;;;;;;;;;;-3.15;62.28;100200.00;6243817;23;19911;-83
2022/03/03 04:51:14;;;;;;;;;;;;;;;-3.17;62.48;100201.47;6242899;23;20334;-80
2022/03/03 04:53:39;;;;;;;;;;;;;;;-3.21;62.27;100189.72;6244096;23;19916;-79
2022/03/03 04:56:05;;;;;;;;;;;;;;;-3.19;62.38;100198.34;6243428;23;20356;-80
2022/03/03 04:58:30;;;;;;;;;;;;;;;-3.20;62.01;100202.97;6244635;23;19919;-80
2022/03/03 05:00:56;;;;;;;;;;;;;;;-3.21;62.11;100204.09;6243546;23;19923;-79
2022/03/03 05:03:21;;;;;;;;;;;;;;;-3.22;61.99;100199.78;6243107;23;19916;-79
2022/03/03 05:05:47;;;;;;;;;;;;;;;-3.24;61.89;100202.06;6217343;23;19919;-80
2022/03/03 05:08:13;;;;;;;;;;;;;;;-3.20;62.23;100197.53;6243390;23;19986;-79
2022/03/03 05:10:38;;;;;;;;;;;;;;;-3.21;62.56;100204.09;6244190;23;19947;-79
2022/03/03 05:13:03;;;;;;;;;;;;;;;-3.21;62.59;100200.59;6243614;23;19915;-80
2022/03/03 05:15:29;;;;;;;;;;;;;;;-3.21;62.26;100200.59;6242935;23;19919;-79
2022/03/03 05:17:55;;;;;;;;;;;;;;;-3.24;62.64;100191.22;6243636;23;19916;-79
2022/03/03 05:20:21;;;;;;;;;;;;;;;-3.29;63.11;100188.72;6243474;23;19912;-79
2022/03/03 05:22:46;;;;;;;;;;;;;;;-3.27;63.29;100194.59;6217367;23;20367;-79
2022/03/03 05:25:12;;;;;;;;;;;;;;;-3.25;63.38;100186.13;6243444;23;19922;-79
2022/03/03 05:27:37;;;;;;;;;;;;;;;-3.17;63.39;100182.50;6244258;23;19916;-79
2022/03/03 05:30:03;;;;;;;;;;;;;;;-3.20;63.73;100189.41;6243944;23;20330;-79
2022/03/03 05:32:29;;;;;;;;;;;;;;;-3.22;64.10;100188.16;6243957;23;20346;-79
2022/03/03 05:34:54;;;;;;;;;;;;;;;-3.23;64.38;100187.34;6243838;23;19916;-79
2022/03/03 05:37:21;;;;;;;;;;;;;;;-3.24;64.40;100183.09;6243837;23;19915;-79
2022/03/03 05:39:47;;;;;;;;;;;;;;;-3.19;64.57;100165.78;6243849;23;19971;-79
2022/03/03 05:42:12;;;;;;;;;;;;;;;-3.22;64.06;100188.16;6243403;23;19912;-80
2022/03/03 05:44:37;;;;;;;;;;;;;;;-3.24;63.94;100179.56;6236939;23;19920;-79
2022/03/03 05:47:03;;;;;;;;;;;;;;;-3.25;64.20;100189.63;6241471;23;19922;-80
2022/03/03 05:49:29;;;;;;;;;;;;;;;-3.26;64.32;100188.03;6240911;23;20355;-79
2022/03/03 05:51:54;;;;;;;;;;;;;;;-3.30;64.53;100187.13;6215350;23;19924;-79
2022/03/03 05:54:20;;;;;;;;;;;;;;;-3.24;64.63;100195.84;6214082;23;19951;-79
2022/03/03 05:56:45;;;;;;;;;;;;;;;-3.22;64.44;100202.50;6241035;23;20326;-79
2022/03/03 05:59:12;;;;;;;;;;;;;;;-3.21;64.21;100201.38;6214433;23;19922;-79
2022/03/03 06:01:38;;;;;;;;;;;;;;;-3.18;63.83;100200.69;6214912;23;19962;-79
2022/03/03 06:04:03;;;;;;;;;;;;;;;-3.14;64.38;100198.88;6213464;23;19923;-79
2022/03/03 06:06:31;;;;;;;;;;;;;;;-3.05;64.40;100199.56;6241517;23;20362;-79
2022/03/03 06:09:03;;;;;;;;;;;;;;;-3.01;65.13;100197.72;6215967;23;19926;-82
2022/03/03 06:11:28;;;;;;;;;;;;;;;-2.95;64.41;100198.28;6241818;23;19942;-81
2022/03/03 06:13:57;;;;;;;;;;;;;;;-2.91;64.88;100205.38;6242491;23;20397;-82
2022/03/03 06:16:23;;;;;;;;;;;;;;;-2.87;64.98;100200.84;6215661;23;19962;-83
2022/03/03 06:18:49;;;;;;;;;;;;;;;-2.80;64.73;100205.72;6244653;23;19924;-83
2022/03/03 06:21:15;;;;;;;;;;;;;;;-2.75;64.84;100207.41;6217919;23;19923;-82
2022/03/03 06:23:40;;;;;;;;;;;;;;;-2.66;65.06;100216.97;6218522;23;19912;-82
2022/03/03 06:26:11;;;;;;;;;;;;;;;-2.46;64.87;100210.56;6244632;23;20008;-84
2022/03/03 06:28:37;;;;;;;;;;;;;;;-2.29;64.20;100206.75;6193402;23;20326;-83
2022/03/03 06:31:03;;;;;;;;;;;;;;;-2.08;64.19;100207.34;6217643;23;19915;-83
2022/03/03 06:33:29;;;;;;;;;;;;;;;-1.79;63.91;100205.34;6216500;23;20346;-83
2022/03/03 06:35:55;;;;;;;;;;;;;;;-1.57;60.96;100202.81;6245173;23;19916;-83
2022/03/03 06:38:20;;;;;;;;;;;;;;;-1.35;59.37;100204.13;6244169;23;20212;-85
2022/03/03 06:40:46;;;;;;;;;;;;;;;-1.07;58.51;100199.31;6214788;23;20346;-84
2022/03/03 06:43:11;;;;;;;;;;;;;;;-0.88;57.30;100195.03;6240919;23;19950;-84
2022/03/03 06:45:37;;;;;;;;;;;;;;;-0.78;56.61;100194.50;6242912;23;20008;-84
2022/03/03 06:48:04;;;;;;;;;;;;;;;-0.55;56.03;100190.72;6243131;23;19919;-85
2022/03/03 06:50:29;;;;;;;;;;;;;;;-0.35;55.88;100191.47;6216477;23;20267;-84
2022/03/03 06:52:55;;;;;;;;;;;;;;;-0.14;54.62;100196.56;6244749;23;19911;-85
2022/03/03 06:55:21;;;;;;;;;;;;;;;0.05;54.11;100180.16;6241431;23;20484;-85
2022/03/03 06:57:50;;;;;;;;;;;;;;;0.22;53.04;100187.06;6242353;23;19919;-85
2022/03/03 07:00:17;;;;;;;;;;;;;;;0.44;52.47;100189.00;6243128;23;19912;-85
2022/03/03 07:02:42;;;;;;;;;;;;;;;0.68;51.47;100183.16;6216506;23;19922;-85
2022/03/03 07:05:10;;;;;;;;;;;;;;;0.84;51.62;100185.72;6243897;23;19919;-85
2022/03/03 07:07:35;;;;;;;;;;;;;;;1.06;52.00;100182.13;6217573;23;19916;-86
2022/03/03 07:10:01;;;;;;;;;;;;;;;1.41;51.36;100184.56;6218222;23;19923;-85
2022/03/03 07:12:27;;;;;;;;;;;;;;;1.55;49.53;100176.50;6245457;23;20308;-86
2022/03/03 07:14:52;;;;;;;;;;;;;;;1.62;48.27;100182.06;6245204;23;19918;-86
2022/03/03 07:17:24;;;;;;;;;;;;;;;1.67;48.54;100170.00;6245301;23;19919;-86
2022/03/03 07:20:08;;;;;;;;;;;;;;;1.81;48.02;100173.69;6245050;23;19916;-86
2022/03/03 07:22:40;;;;;;;;;;;;;;;1.93;48.03;100171.84;6245799;23;19915;-86
2022/03/03 07:25:10;;;;;;;;;;;;;;;2.19;48.28;100175.22;6244892;23;19916;-87
2022/03/03 07:27:36;;;;;;;;;;;;;;;2.42;48.21;100174.25;6245491;23;19922;-87
2022/03/03 07:30:09;;;;;;;;;;;;;;;2.51;47.18;100177.47;6193552;23;19998;-87
2022/03/03 07:32:39;;;;;;;;;;;;;;;2.83;46.47;100174.97;6245339;23;19915;-87
2022/03/03 07:35:05;;;;;;;;;;;;;;;3.05;45.02;100163.75;6245051;23;19915;-87
2022/03/03 07:37:39;;;;;;;;;;;;;;;2.83;45.47;100166.75;6245328;23;19916;-87
2022/03/03 07:40:06;;;;;;;;;;;;;;;2.73;45.45;100169.03;6244895;23;20380;-87
2022/03/03 07:42:31;;;;;;;;;;;;;;;2.87;44.84;100178.50;6245193;23;20296;-87
2022/03/03 07:44:58;;;;;;;;;;;;;;;2.92;44.94;100180.88;6245334;23;19949;-87
2022/03/03 07:47:23;;;;;;;;;;;;;;;2.94;44.39;100178.56;6245113;23;19919;-88
2022/03/03 07:49:49;;;;;;;;;;;;;;;3.11;44.73;100178.66;6245171;23;20253;-86
2022/03/03 07:52:14;;;;;;;;;;;;;;;3.17;44.53;100168.09;6245114;23;19958;-88
2022/03/03 07:54:40;;;;;;;;;;;;;;;3.36;44.46;100175.25;6244951;23;20393;-88
2022/03/03 07:57:07;;;;;;;;;;;;;;;3.55;44.28;100167.50;6244759;23;20352;-88
2022/03/03 07:59:33;;;;;;;;;;;;;;;3.88;43.75;100166.44;6244899;23;19912;-88
2022/03/03 08:01:58;;;;;;;;;;;;;;;4.00;43.53;100157.03;6244929;23;19922;-87
2022/03/03 08:04:27;;;;;;;;;;;;;;;4.20;43.29;100156.28;6244485;23;19919;-88
2022/03/03 08:06:55;;;;;;;;;;;;;;;4.47;42.88;100153.94;6244911;23;19922;-88
2022/03/03 08:09:24;;;;;;;;;;;;;;;4.52;42.51;100153.53;6218417;23;19923;-88
2022/03/03 08:11:51;;;;;;;;;;;;;;;4.55;42.39;100143.72;6218061;23;19998;-87
2022/03/03 08:14:17;;;;;;;;;;;;;;;4.72;41.83;100142.94;6245138;23;20018;-89
2022/03/03 08:16:44;;;;;;;;;;;;;;;4.88;42.16;100145.25;6218258;23;20334;-88
2022/03/03 08:19:10;;;;;;;;;;;;;;;5.12;41.39;100138.91;6244763;23;20321;-89
2022/03/03 08:21:36;;;;;;;;;;;;;;;5.31;41.11;100123.91;6218193;23;20010;-88
2022/03/03 08:24:02;;;;;;;;;;;;;;;5.36;39.61;100127.03;6218635;23;20322;-89
2022/03/03 08:26:31;;;;;;;;;;;;;;;5.39;39.82;100131.72;6218181;23;19930;-89
2022/03/03 08:28:57;;;;;;;;;;;;;;;5.61;39.89;100133.22;6219017;23;19915;-89
2022/03/03 08:31:28;;;;;;;;;;;;;;;5.71;38.59;100128.03;6245292;23;19921;-89
2022/03/03 08:34:02;;;;;;;;;;;;;;;5.69;39.12;100127.66;6245161;23;19943;-89
2022/03/03 08:36:34;;;;;;;;;;;;;;;5.72;38.30;100126.84;6245614;23;19920;-89
2022/03/03 08:39:03;;;;;;;;;;;;;;;5.94;37.76;100122.81;6244981;23;19915;-89
2022/03/03 08:41:29;;;;;;;;;;;;;;;5.91;37.83;100129.13;6217649;23;20420;-80
2022/03/03 08:43:54;;;;;;;;;;;;;;;6.02;37.58;100129.84;6244548;23;19990;-79
2022/03/03 08:46:22;;;;;;;;;;;;;;;5.95;37.02;100127.13;6217428;23;19938;-79
2022/03/03 08:48:48;;;;;;;;;;;;;;;5.46;37.80;100122.69;6217698;23;20381;-80
2022/03/03 08:51:15;;;;;;;;;;;;;;;5.44;38.67;100117.56;6244229;23;19943;-80
2022/03/03 08:53:41;;;;;;;;;;;;;;;5.40;38.53;100119.53;6217901;23;19919;-79
2022/03/03 08:56:08;;;;;;;;;;;;;;;5.47;38.08;100110.47;6244229;23;19922;-79
2022/03/03 08:58:34;;;;;;;;;;;;;;;5.69;37.87;100109.19;6244243;23;20246;-80
2022/03/03 09:00:59;;;;;;;;;;;;;;;5.63;38.26;100111.56;6244458;23;20053;-90
2022/03/03 09:03:25;;;;;;;;;;;;;;;5.82;38.14;100104.00;6243958;23;20249;-89
2022/03/03 09:05:52;;;;;;;;;;;;;;;5.96;37.55;100106.66;6244412;23;19916;-90
2022/03/03 09:08:17;;;;;;;;;;;;;;;6.05;37.63;100104.25;6217408;23;20006;-90
2022/03/03 09:10:43;;;;;;;;;;;;;;;6.24;36.96;100103.69;6217522;23;19946;-89
2022/03/03 09:13:09;;;;;;;;;;;;;;;6.02;36.87;100102.31;6244101;23;19994;-90
2022/03/03 09:15:34;;;;;;;;;;;;;;;5.92;37.25;100098.44;6244271;23;19912;-89
2022/03/03 09:18:00;;;;;;;;;;;;;;;5.98;37.12;100101.56;6217544;23;19915;-90
2022/03/03 09:20:26;;;;;;;;;;;;;;;6.14;36.75;100099.06;6243999;23;20314;-89
2022/03/03 09:22:52;;;;;;;;;;;;;;;6.33;36.51;100090.25;6244252;23;19920;-90
2022/03/03 09:25:17;;;;;;;;;;;;;;;6.51;35.91;100090.84;6243656;23;19915;-90
2022/03/03 09:27:43;;;;;;;;;;;;;;;6.65;35.92;100091.91;6244266;23;19916;-90
2022/03/03 09:30:09;;;;;;;;;;;;;;;6.72;35.44;100078.84;6243969;23;20286;-90
2022/03/03 09:32:34;;;;;;;;;;;;;;;6.85;36.26;100084.63;6244341;23;19923;-90
2022/03/03 09:35:00;;;;;;;;;;;;;;;7.09;35.06;100099.31;6217380;23;19920;-91
2022/03/03 09:37:25;;;;;;;;;;;;;;;6.64;34.48;100084.84;6217340;23;20003;-89
2022/03/03 09:39:51;;;;;;;;;;;;;;;6.72;35.11;100078.84;6244019;23;19912;-90
2022/03/03 09:42:16;;;;;;;;;;;;;;;7.03;35.14;100082.47;6243487;23;20461;-90
2022/03/03 09:44:42;;;;;;;;;;;;;;;7.35;34.90;100068.25;6243993;23;19923;-89
2022/03/03 09:47:08;;;;;;;;;;;;;;;7.44;34.23;100072.06;6216991;23;20219;-90
2022/03/03 09:49:34;;;;;;;;;;;;;;;7.22;33.57;100072.75;6243793;23;19923;-90
2022/03/03 09:52:00;;;;;;;;;;;;;;;7.54;34.49;100075.09;6244134;23;19911;-90
2022/03/03 09:54:26;;;;;;;;;;;;;;;7.67;33.71;100070.59;6243740;23;19994;-90
2022/03/03 09:56:51;;;;;;;;;;;;;;;7.87;32.94;100074.22;6243872;23;19943;-79
2022/03/03 09:59:17;;;;;;;;;;;;;;;7.95;33.55;100070.16;6243787;23;19920;-80
2022/03/03 10:01:44;;;;;;;;;;;;;;;7.97;32.94;100067.75;6216996;23;19915;-79
2022/03/03 10:04:19;;;;;;;;;;;;;;;8.02;32.33;100064.50;6216318;23;19920;-79
2022/03/03 10:06:44;;;;;;;;;;;;;;;8.10;32.67;100067.94;6243696;23;20338;-80
2022/03/03 10:09:10;;;;;;;;;;;;;;;7.83;31.40;100073.50;6243446;23;19926;-80
2022/03/03 10:11:39;;;;;;;;;;;;;;;7.60;32.02;100074.25;6244030;23;19923;-79
2022/03/03 10:14:05;;;;;;;;;;;;;;;7.86;33.41;100070.69;6243269;23;20021;-79
2022/03/03 10:16:31;;;;;;;;;;;;;;;8.01;31.55;100068.47;6217286;23;20342;-79
2022/03/03 10:18:59;;;;;;;;;;;;;;;8.01;31.38;100060.19;6243779;23;19939;-80
2022/03/03 10:21:28;;;;;;;;;;;;;;;8.09;31.03;100067.16;6243421;23;19957;-79
2022/03/03 10:23:53;;;;;;;;;;;;;;;7.70;30.54;100051.19;6243739;23;19920;-79
2022/03/03 10:26:19;;;;;;;;;;;;;;;7.69;32.10;100051.59;6243620;23;20288;-79
2022/03/03 10:28:47;;;;;;;;;;;;;;;7.86;32.22;100045.03;6243594;23;19919;-80
2022/03/03 10:31:13;;;;;;;;;;;;;;;7.94;32.41;100040.97;6243571;23;20357;-79
2022/03/03 10:33:39;;;;;;;;;;;;;;;8.06;31.68;100048.66;6243642;23;19916;-79
2022/03/03 10:36:04;;;;;;;;;;;;;;;8.13;30.60;100048.53;6243568;23;19947;-79
2022/03/03 10:38:30;;;;;;;;;;;;;;;8.35;30.53;100041.50;6243688;23;19923;-79
2022/03/03 10:40:56;;;;;;;;;;;;;;;8.37;29.92;100032.78;6243915;23;19919;-80
2022/03/03 10:43:21;;;;;;;;;;;;;;;8.39;27.89;100033.91;6216459;23;19922;-79
2022/03/03 10:45:57;;;;;;;;;;;;;;;8.43;28.52;100031.09;6243610;23;20359;-79
2022/03/03 10:48:23;;;;;;;;;;;;;;;8.74;30.63;100026.16;6243531;23;19923;-79
2022/03/03 10:50:50;;;;;;;;;;;;;;;8.94;28.24;100024.16;6243544;23;19982;-79
2022/03/03 10:53:16;;;;;;;;;;;;;;;9.16;28.86;100027.28;6243448;23;19918;-80
2022/03/03 10:55:57;;;;;;;;;;;;;;;9.49;29.01;100015.09;6218750;23;19919;-79
2022/03/03 10:58:23;;;;;;;;;;;;;;;9.46;27.57;100010.41;6245127;23;19968;-79
2022/03/03 11:00:48;;;;;;;;;;;;;;;9.58;27.71;100014.50;6218833;23;19920;-80
2022/03/03 11:03:14;;;;;;;;;;;;;;;9.54;27.26;100009.06;6244805;23;19916;-80
2022/03/03 11:05:40;;;;;;;;;;;;;;;9.68;27.66;100007.91;6218706;23;19915;-80
2022/03/03 11:08:05;;;;;;;;;;;;;;;9.66;27.74;100002.84;6245563;23;19923;-79
2022/03/03 11:10:31;;;;;;;;;;;;;;;9.62;26.78;100004.13;6245135;23;20345;-79
2022/03/03 11:12:57;;;;;;;;;;;;;;;9.71;28.55;99998.75;6245355;23;19919;-79
2022/03/03 11:15:23;;;;;;;;;;;;;;;9.53;27.04;99992.84;6245027;23;19916;-77
2022/03/03 11:17:49;;;;;;;;;;;;;;;9.71;28.60;99988.44;6245551;23;19923;-77
2022/03/03 11:20:15;;;;;;;;;;;;;;;10.20;27.70;99982.91;6245197;23;19915;-77
2022/03/03 11:22:41;;;;;;;;;;;;;;;10.21;26.98;99981.69;6245386;23;19994;-77
2022/03/03 11:25:10;;;;;;;;;;;;;;;10.44;28.39;99983.47;6218318;23;19947;-79
2022/03/03 11:27:37;;;;;;;;;;;;;;;10.06;24.89;99986.03;6245528;23;19915;-79
2022/03/03 11:30:12;;;;;;;;;;;;;;;9.96;25.98;99976.75;6245063;23;19920;-79
2022/03/03 11:32:39;;;;;;;;;;;;;;;9.96;27.43;99967.66;6245833;23;19919;-79
2022/03/03 11:35:08;;;;;;;;;;;;;;;10.17;27.33;99970.72;6245097;23;19918;-79
2022/03/03 11:37:40;;;;;;;;;;;;;;;10.04;26.52;99971.81;6244887;23;19915;-79
2022/03/03 11:40:06;;;;;;;;;;;;;;;10.37;27.42;99962.25;6245166;23;19923;-79
2022/03/03 11:42:34;;;;;;;;;;;;;;;10.60;27.57;99958.44;6244978;23;20257;-79
2022/03/03 11:45:00;;;;;;;;;;;;;;;10.82;26.95;99950.31;6244753;23;20019;-79
2022/03/03 11:47:30;;;;;;;;;;;;;;;10.93;27.10;99948.78;6218195;23;19951;-79
2022/03/03 11:49:59;;;;;;;;;;;;;;;10.99;26.06;99949.00;6244961;23;19916;-78
2022/03/03 11:52:25;;;;;;;;;;;;;;;10.98;25.90;99937.13;6244214;23;20449;-79
2022/03/03 11:55:00;;;;;;;;;;;;;;;11.06;26.46;99924.59;6243509;23;20006;-79
2022/03/03 11:57:28;;;;;;;;;;;;;;;10.92;26.23;99927.03;6243642;23;19916;-79
2022/03/03 12:00:00;;;;;;;;;;;;;;;10.77;26.61;99930.22;6242961;23;19965;-79
2022/03/03 12:02:29;;;;;;;;;;;;;;;10.64;25.85;99917.53;6216220;23;19922;-78
2022/03/03 12:05:13;;;;;;;;;;;;;;;10.55;26.75;99911.88;6243066;23;20405;-76
2022/03/03 12:07:39;;;;;;;;;;;;;;;10.52;26.97;99890.53;6243541;23;19915;-80
2022/03/03 12:10:20;;;;;;;;;;;;;;;10.59;26.62;99901.44;6241778;23;20002;-78
2022/03/03 12:12:45;;;;;;;;;;;;;;;10.27;26.66;99892.00;6243606;23;20423;-78
2022/03/03 12:15:10;;;;;;;;;;;;;;;10.54;26.19;99893.66;6242871;23;19919;-78
2022/03/03 12:17:58;;;;;;;;;;;;;;;10.82;25.59;99886.50;6216978;23;19977;-78
2022/03/03 12:20:23;;;;;;;;;;;;;;;10.89;25.39;99881.50;6243289;23;19915;-78
2022/03/03 12:23:07;;;;;;;;;;;;;;;10.82;25.43;99875.38;6243475;23;19993;-78
2022/03/03 12:25:55;;;;;;;;;;;;;;;10.51;26.08;99883.44;6240867;23;20052;-78
2022/03/03 12:28:22;;;;;;;;;;;;;;;10.18;26.87;99882.78;6217646;23;20352;-78
2022/03/03 12:30:50;;;;;;;;;;;;;;;9.78;26.39;99871.16;6216507;23;19951;-89
2022/03/03 12:33:22;;;;;;;;;;;;;;;9.71;27.39;99879.66;6217425;23;19912;-88
2022/03/03 12:35:47;;;;;;;;;;;;;;;9.89;26.35;99866.13;6243748;23;19919;-89
2022/03/03 12:38:13;;;;;;;;;;;;;;;10.21;27.30;99863.28;6243398;23;19926;-89
2022/03/03 12:40:38;;;;;;;;;;;;;;;10.53;27.05;99850.50;6242674;23;19994;-88
2022/03/03 12:43:08;;;;;;;;;;;;;;;10.67;25.38;99856.41;6217021;23;20353;-88